sensor_id;sensor_type;location;lat;lon;timestamp;temperature;humidity
19908;DHT22;10116;53.112;7.356;2023-10-08T00:01:09;24.80;99.90
19908;DHT22;10116;53.112;7.356;2023-10-08T00:03:38;24.70;99.90
19908;DHT22;10116;53.112;7.356;2023-10-08T00:06:06;24.80;99.90
19908;DHT22;10116;53.112;7.356;2023-10-08T00:08:38;24.80;99.90
19908;DHT22;10116;53.112;7.356;2023-10-08T00:11:04;24.80;99.90
19908;DHT22;10116;53.112;7.356;2023-10-08T00:13:32;24.70;99.90
19908;DHT22;10116;53.112;7.356;2023-10-08T00:16:05;24.70;99.90
19908;DHT22;10116;53.112;7.356;2023-10-08T00:18:34;24.70;99.90
19908;DHT22;10116;53.112;7.356;2023-10-08T00:21:00;24.70;99.90
19908;DHT22;10116;53.112;7.356;2023-10-08T00:23:38;24.70;99.90
19908;DHT22;10116;53.112;7.356;2023-10-08T00:26:24;24.70;99.90
19908;DHT22;10116;53.112;7.356;2023-10-08T00:28:56;24.70;99.90
19908;DHT22;10116;53.112;7.356;2023-10-08T00:31:25;24.70;99.90
19908;DHT22;10116;53.112;7.356;2023-10-08T00:33:56;24.70;99.90
19908;DHT22;10116;53.112;7.356;2023-10-08T00:36:22;24.70;99.90
19908;DHT22;10116;53.112;7.356;2023-10-08T00:38:49;24.70;99.90
19908;DHT22;10116;53.112;7.356;2023-10-08T00:41:19;24.70;99.90
19908;DHT22;10116;53.112;7.356;2023-10-08T00:43:47;24.70;99.90
19908;DHT22;10116;53.112;7.356;2023-10-08T00:46:13;24.70;99.90
19908;DHT22;10116;53.112;7.356;2023-10-08T00:49:02;24.70;99.90
19908;DHT22;10116;53.112;7.356;2023-10-08T00:51:53;24.70;99.90
19908;DHT22;10116;53.112;7.356;2023-10-08T00:54:41;24.70;99.90
19908;DHT22;10116;53.112;7.356;2023-10-08T00:57:23;24.70;99.90
19908;DHT22;10116;53.112;7.356;2023-10-08T00:59:51;24.70;99.90
19908;DHT22;10116;53.112;7.356;2023-10-08T01:02:20;24.70;99.90
19908;DHT22;10116;53.112;7.356;2023-10-08T01:04:50;24.70;99.90
19908;DHT22;10116;53.112;7.356;2023-10-08T01:07:16;24.70;99.90
19908;DHT22;10116;53.112;7.356;2023-10-08T01:09:43;24.70;99.90
19908;DHT22;10116;53.112;7.356;2023-10-08T01:12:15;24.70;99.90
19908;DHT22;10116;53.112;7.356;2023-10-08T01:14:49;24.70;99.90
19908;DHT22;10116;53.112;7.356;2023-10-08T01:17:20;24.70;99.90
19908;DHT22;10116;53.112;7.356;2023-10-08T01:19:50;24.70;99.90
19908;DHT22;10116;53.112;7.356;2023-10-08T01:22:20;24.70;99.90
19908;DHT22;10116;53.112;7.356;2023-10-08T01:24:48;24.70;99.90
19908;DHT22;10116;53.112;7.356;2023-10-08T01:27:18;24.70;99.90
19908;DHT22;10116;53.112;7.356;2023-10-08T01:29:53;24.70;99.90
19908;DHT22;10116;53.112;7.356;2023-10-08T01:32:20;24.70;99.90
19908;DHT22;10116;53.112;7.356;2023-10-08T01:34:47;24.70;99.90
19908;DHT22;10116;53.112;7.356;2023-10-08T01:37:14;24.60;99.90
19908;DHT22;10116;53.112;7.356;2023-10-08T01:39:45;24.70;99.90
19908;DHT22;10116;53.112;7.356;2023-10-08T01:42:12;24.70;99.90
19908;DHT22;10116;53.112;7.356;2023-10-08T01:44:47;24.60;99.90
19908;DHT22;10116;53.112;7.356;2023-10-08T01:47:14;24.70;99.90
19908;DHT22;10116;53.112;7.356;2023-10-08T01:49:41;24.70;99.90
19908;DHT22;10116;53.112;7.356;2023-10-08T01:52:09;24.70;99.90
19908;DHT22;10116;53.112;7.356;2023-10-08T01:54:43;24.70;99.90
19908;DHT22;10116;53.112;7.356;2023-10-08T01:57:10;24.60;99.90
19908;DHT22;10116;53.112;7.356;2023-10-08T01:59:35;24.60;99.90
19908;DHT22;10116;53.112;7.356;2023-10-08T02:02:03;24.70;99.90
19908;DHT22;10116;53.112;7.356;2023-10-08T02:04:34;24.60;99.90
19908;DHT22;10116;53.112;7.356;2023-10-08T02:07:04;24.70;99.90
19908;DHT22;10116;53.112;7.356;2023-10-08T02:09:33;24.60;99.90
19908;DHT22;10116;53.112;7.356;2023-10-08T02:11:59;24.60;99.90
19908;DHT22;10116;53.112;7.356;2023-10-08T02:14:25;24.70;99.90
19908;DHT22;10116;53.112;7.356;2023-10-08T02:16:53;24.60;99.90
19908;DHT22;10116;53.112;7.356;2023-10-08T02:19:24;24.60;99.90
19908;DHT22;10116;53.112;7.356;2023-10-08T02:21:54;24.60;99.90
19908;DHT22;10116;53.112;7.356;2023-10-08T02:24:21;24.60;99.90
19908;DHT22;10116;53.112;7.356;2023-10-08T02:26:54;24.60;99.90
19908;DHT22;10116;53.112;7.356;2023-10-08T02:29:25;24.60;99.90
19908;DHT22;10116;53.112;7.356;2023-10-08T02:31:51;24.60;99.90
19908;DHT22;10116;53.112;7.356;2023-10-08T02:34:19;24.60;99.90
19908;DHT22;10116;53.112;7.356;2023-10-08T02:36:45;24.60;99.90
19908;DHT22;10116;53.112;7.356;2023-10-08T02:39:12;24.60;99.90
19908;DHT22;10116;53.112;7.356;2023-10-08T02:41:51;24.60;99.90
19908;DHT22;10116;53.112;7.356;2023-10-08T02:44:18;24.60;99.90
19908;DHT22;10116;53.112;7.356;2023-10-08T02:46:48;24.60;99.90
19908;DHT22;10116;53.112;7.356;2023-10-08T02:49:15;24.60;99.90
19908;DHT22;10116;53.112;7.356;2023-10-08T02:51:53;24.60;99.90
19908;DHT22;10116;53.112;7.356;2023-10-08T02:54:20;24.60;99.90
19908;DHT22;10116;53.112;7.356;2023-10-08T02:56:52;24.60;99.90
19908;DHT22;10116;53.112;7.356;2023-10-08T02:59:23;24.60;99.90
19908;DHT22;10116;53.112;7.356;2023-10-08T03:01:49;24.60;99.90
19908;DHT22;10116;53.112;7.356;2023-10-08T03:04:15;24.60;99.90
19908;DHT22;10116;53.112;7.356;2023-10-08T03:06:48;24.60;99.90
19908;DHT22;10116;53.112;7.356;2023-10-08T03:09:21;24.60;99.90
19908;DHT22;10116;53.112;7.356;2023-10-08T03:11:50;24.60;99.90
19908;DHT22;10116;53.112;7.356;2023-10-08T03:14:17;24.60;99.90
19908;DHT22;10116;53.112;7.356;2023-10-08T03:16:53;24.50;99.90
19908;DHT22;10116;53.112;7.356;2023-10-08T03:19:21;24.50;99.90
19908;DHT22;10116;53.112;7.356;2023-10-08T03:21:50;24.50;99.90
19908;DHT22;10116;53.112;7.356;2023-10-08T03:24:19;24.50;99.90
19908;DHT22;10116;53.112;7.356;2023-10-08T03:27:00;24.50;99.90
19908;DHT22;10116;53.112;7.356;2023-10-08T03:29:52;24.50;99.90
19908;DHT22;10116;53.112;7.356;2023-10-08T03:32:20;24.60;99.90
19908;DHT22;10116;53.112;7.356;2023-10-08T03:34:51;24.60;99.90
19908;DHT22;10116;53.112;7.356;2023-10-08T03:37:22;24.60;99.90
19908;DHT22;10116;53.112;7.356;2023-10-08T03:39:55;24.70;99.90
19908;DHT22;10116;53.112;7.356;2023-10-08T03:42:33;24.70;99.90
19908;DHT22;10116;53.112;7.356;2023-10-08T03:45:06;24.80;99.90
19908;DHT22;10116;53.112;7.356;2023-10-08T03:47:38;24.80;99.90
19908;DHT22;10116;53.112;7.356;2023-10-08T03:50:06;24.80;99.90
19908;DHT22;10116;53.112;7.356;2023-10-08T03:52:32;24.80;99.90
19908;DHT22;10116;53.112;7.356;2023-10-08T03:55:03;24.80;99.90
19908;DHT22;10116;53.112;7.356;2023-10-08T03:57:47;24.90;99.90
19908;DHT22;10116;53.112;7.356;2023-10-08T04:00:22;24.90;99.90
19908;DHT22;10116;53.112;7.356;2023-10-08T04:02:55;24.90;99.90
19908;DHT22;10116;53.112;7.356;2023-10-08T04:05:23;24.90;99.90
19908;DHT22;10116;53.112;7.356;2023-10-08T04:07:57;24.90;99.90
19908;DHT22;10116;53.112;7.356;2023-10-08T04:10:32;24.90;99.90
19908;DHT22;10116;53.112;7.356;2023-10-08T04:13:04;24.90;99.90
19908;DHT22;10116;53.112;7.356;2023-10-08T04:15:40;24.90;99.90
19908;DHT22;10116;53.112;7.356;2023-10-08T04:18:10;24.90;99.90
19908;DHT22;10116;53.112;7.356;2023-10-08T04:20:36;24.90;99.90
19908;DHT22;10116;53.112;7.356;2023-10-08T04:23:10;24.90;99.90
19908;DHT22;10116;53.112;7.356;2023-10-08T04:25:39;24.90;99.90
19908;DHT22;10116;53.112;7.356;2023-10-08T04:28:08;24.90;99.90
19908;DHT22;10116;53.112;7.356;2023-10-08T04:30:40;24.90;99.90
19908;DHT22;10116;53.112;7.356;2023-10-08T04:33:07;24.90;99.90
19908;DHT22;10116;53.112;7.356;2023-10-08T04:35:42;24.90;99.90
19908;DHT22;10116;53.112;7.356;2023-10-08T04:38:25;24.90;99.90
19908;DHT22;10116;53.112;7.356;2023-10-08T04:40:52;24.90;99.90
19908;DHT22;10116;53.112;7.356;2023-10-08T04:43:22;24.90;99.90
19908;DHT22;10116;53.112;7.356;2023-10-08T04:46:00;24.90;99.90
19908;DHT22;10116;53.112;7.356;2023-10-08T04:49:04;24.90;99.90
19908;DHT22;10116;53.112;7.356;2023-10-08T04:51:35;24.90;99.90
19908;DHT22;10116;53.112;7.356;2023-10-08T04:54:10;24.90;99.90
19908;DHT22;10116;53.112;7.356;2023-10-08T04:56:42;24.90;99.90
19908;DHT22;10116;53.112;7.356;2023-10-08T04:59:08;24.90;99.90
19908;DHT22;10116;53.112;7.356;2023-10-08T05:01:37;24.90;99.90
19908;DHT22;10116;53.112;7.356;2023-10-08T05:04:34;24.90;99.90
19908;DHT22;10116;53.112;7.356;2023-10-08T05:07:12;24.90;99.90
19908;DHT22;10116;53.112;7.356;2023-10-08T05:09:57;24.90;99.90
19908;DHT22;10116;53.112;7.356;2023-10-08T05:12:28;24.90;99.90
19908;DHT22;10116;53.112;7.356;2023-10-08T05:15:03;25.00;99.90
19908;DHT22;10116;53.112;7.356;2023-10-08T05:17:43;25.00;99.90
19908;DHT22;10116;53.112;7.356;2023-10-08T05:20:19;25.00;99.90
19908;DHT22;10116;53.112;7.356;2023-10-08T05:22:56;25.10;99.90
19908;DHT22;10116;53.112;7.356;2023-10-08T05:25:31;25.10;99.90
19908;DHT22;10116;53.112;7.356;2023-10-08T05:28:06;25.10;99.90
19908;DHT22;10116;53.112;7.356;2023-10-08T05:30:35;25.10;99.90
19908;DHT22;10116;53.112;7.356;2023-10-08T05:33:08;25.10;99.90
19908;DHT22;10116;53.112;7.356;2023-10-08T05:35:35;25.10;99.90
19908;DHT22;10116;53.112;7.356;2023-10-08T05:38:08;25.10;99.90
19908;DHT22;10116;53.112;7.356;2023-10-08T05:40:53;25.10;99.90
19908;DHT22;10116;53.112;7.356;2023-10-08T05:43:32;25.10;99.90
19908;DHT22;10116;53.112;7.356;2023-10-08T05:46:08;25.10;99.90
19908;DHT22;10116;53.112;7.356;2023-10-08T05:48:52;25.10;99.90
19908;DHT22;10116;53.112;7.356;2023-10-08T05:51:42;25.10;99.90
19908;DHT22;10116;53.112;7.356;2023-10-08T05:54:21;25.10;99.90
19908;DHT22;10116;53.112;7.356;2023-10-08T05:57:07;25.10;99.90
19908;DHT22;10116;53.112;7.356;2023-10-08T05:59:40;25.10;99.90
19908;DHT22;10116;53.112;7.356;2023-10-08T06:02:31;25.00;99.90
19908;DHT22;10116;53.112;7.356;2023-10-08T06:05:05;25.10;99.90
19908;DHT22;10116;53.112;7.356;2023-10-08T06:07:44;25.10;99.90
19908;DHT22;10116;53.112;7.356;2023-10-08T06:10:28;25.00;99.90
19908;DHT22;10116;53.112;7.356;2023-10-08T06:13:02;25.00;99.90
19908;DHT22;10116;53.112;7.356;2023-10-08T06:15:50;25.00;99.90
19908;DHT22;10116;53.112;7.356;2023-10-08T06:18:20;25.00;99.90
19908;DHT22;10116;53.112;7.356;2023-10-08T06:20:51;25.00;99.90
19908;DHT22;10116;53.112;7.356;2023-10-08T06:23:20;25.00;99.90
19908;DHT22;10116;53.112;7.356;2023-10-08T06:25:51;25.00;99.90
19908;DHT22;10116;53.112;7.356;2023-10-08T06:28:25;25.00;99.90
19908;DHT22;10116;53.112;7.356;2023-10-08T06:30:53;25.00;99.90
19908;DHT22;10116;53.112;7.356;2023-10-08T06:33:24;25.00;99.90
19908;DHT22;10116;53.112;7.356;2023-10-08T06:35:52;25.00;99.90
19908;DHT22;10116;53.112;7.356;2023-10-08T06:38:37;25.00;99.90
19908;DHT22;10116;53.112;7.356;2023-10-08T06:41:04;25.00;99.90
19908;DHT22;10116;53.112;7.356;2023-10-08T06:43:40;24.90;99.90
19908;DHT22;10116;53.112;7.356;2023-10-08T06:46:09;25.00;99.90
19908;DHT22;10116;53.112;7.356;2023-10-08T06:48:38;25.00;99.90
19908;DHT22;10116;53.112;7.356;2023-10-08T06:51:08;25.00;99.90
19908;DHT22;10116;53.112;7.356;2023-10-08T06:53:39;25.00;99.90
19908;DHT22;10116;53.112;7.356;2023-10-08T06:56:05;25.10;99.90
19908;DHT22;10116;53.112;7.356;2023-10-08T06:58:31;25.10;99.90
19908;DHT22;10116;53.112;7.356;2023-10-08T07:01:01;25.10;99.90
19908;DHT22;10116;53.112;7.356;2023-10-08T07:03:38;25.10;99.90
19908;DHT22;10116;53.112;7.356;2023-10-08T07:06:04;25.10;99.90
19908;DHT22;10116;53.112;7.356;2023-10-08T07:08:43;25.10;99.90
19908;DHT22;10116;53.112;7.356;2023-10-08T07:11:12;25.10;99.90
19908;DHT22;10116;53.112;7.356;2023-10-08T07:13:39;25.10;99.90
19908;DHT22;10116;53.112;7.356;2023-10-08T07:16:07;25.10;99.90
19908;DHT22;10116;53.112;7.356;2023-10-08T07:18:39;25.10;99.90
19908;DHT22;10116;53.112;7.356;2023-10-08T07:21:07;25.10;99.90
19908;DHT22;10116;53.112;7.356;2023-10-08T07:23:39;25.10;99.90
19908;DHT22;10116;53.112;7.356;2023-10-08T07:26:28;25.10;99.90
19908;DHT22;10116;53.112;7.356;2023-10-08T07:29:04;25.10;99.90
19908;DHT22;10116;53.112;7.356;2023-10-08T07:31:37;25.10;99.90
19908;DHT22;10116;53.112;7.356;2023-10-08T07:34:07;25.10;99.90
19908;DHT22;10116;53.112;7.356;2023-10-08T07:36:52;25.10;99.90
19908;DHT22;10116;53.112;7.356;2023-10-08T07:39:20;25.10;99.90
19908;DHT22;10116;53.112;7.356;2023-10-08T07:42:05;25.00;99.90
19908;DHT22;10116;53.112;7.356;2023-10-08T07:44:31;25.10;99.90
19908;DHT22;10116;53.112;7.356;2023-10-08T07:46:57;25.10;99.90
19908;DHT22;10116;53.112;7.356;2023-10-08T07:49:24;25.10;99.90
19908;DHT22;10116;53.112;7.356;2023-10-08T07:51:51;25.10;99.90
19908;DHT22;10116;53.112;7.356;2023-10-08T07:54:21;25.10;99.90
19908;DHT22;10116;53.112;7.356;2023-10-08T07:56:49;25.10;99.90
19908;DHT22;10116;53.112;7.356;2023-10-08T07:59:17;25.00;99.90
19908;DHT22;10116;53.112;7.356;2023-10-08T08:01:44;24.70;99.90
19908;DHT22;10116;53.112;7.356;2023-10-08T08:04:11;24.70;99.90
19908;DHT22;10116;53.112;7.356;2023-10-08T08:06:40;24.70;99.90
19908;DHT22;10116;53.112;7.356;2023-10-08T08:09:06;24.70;99.90
19908;DHT22;10116;53.112;7.356;2023-10-08T08:11:43;24.70;99.90
19908;DHT22;10116;53.112;7.356;2023-10-08T08:14:14;24.80;99.90
19908;DHT22;10116;53.112;7.356;2023-10-08T08:16:45;24.80;99.90
19908;DHT22;10116;53.112;7.356;2023-10-08T08:19:15;24.80;99.90
19908;DHT22;10116;53.112;7.356;2023-10-08T08:21:42;24.80;99.90
19908;DHT22;10116;53.112;7.356;2023-10-08T08:24:12;24.80;99.90
19908;DHT22;10116;53.112;7.356;2023-10-08T08:26:38;24.80;99.90
19908;DHT22;10116;53.112;7.356;2023-10-08T08:29:26;24.80;99.90
19908;DHT22;10116;53.112;7.356;2023-10-08T08:31:52;24.80;99.90
19908;DHT22;10116;53.112;7.356;2023-10-08T08:34:19;24.80;99.90
19908;DHT22;10116;53.112;7.356;2023-10-08T08:36:49;24.80;99.90
19908;DHT22;10116;53.112;7.356;2023-10-08T08:39:18;24.90;99.90
19908;DHT22;10116;53.112;7.356;2023-10-08T08:42:01;24.90;99.90
19908;DHT22;10116;53.112;7.356;2023-10-08T08:44:31;24.90;99.90
19908;DHT22;10116;53.112;7.356;2023-10-08T08:47:01;24.80;99.90
19908;DHT22;10116;53.112;7.356;2023-10-08T08:49:35;24.90;99.90
19908;DHT22;10116;53.112;7.356;2023-10-08T08:52:04;24.80;99.90
19908;DHT22;10116;53.112;7.356;2023-10-08T08:54:30;24.90;99.90
19908;DHT22;10116;53.112;7.356;2023-10-08T08:56:57;24.90;99.90
19908;DHT22;10116;53.112;7.356;2023-10-08T08:59:27;24.80;99.90
19908;DHT22;10116;53.112;7.356;2023-10-08T09:01:59;24.90;99.90
19908;DHT22;10116;53.112;7.356;2023-10-08T09:04:31;24.90;99.90
19908;DHT22;10116;53.112;7.356;2023-10-08T09:07:01;24.90;99.90
19908;DHT22;10116;53.112;7.356;2023-10-08T09:09:34;24.90;99.90
19908;DHT22;10116;53.112;7.356;2023-10-08T09:12:01;24.90;99.90
19908;DHT22;10116;53.112;7.356;2023-10-08T09:14:27;24.90;99.90
19908;DHT22;10116;53.112;7.356;2023-10-08T09:16:57;24.90;99.90
19908;DHT22;10116;53.112;7.356;2023-10-08T09:19:25;24.90;99.90
19908;DHT22;10116;53.112;7.356;2023-10-08T09:22:02;24.90;99.90
19908;DHT22;10116;53.112;7.356;2023-10-08T09:24:30;24.80;99.90
19908;DHT22;10116;53.112;7.356;2023-10-08T09:26:56;24.80;99.90
19908;DHT22;10116;53.112;7.356;2023-10-08T09:29:24;24.90;99.90
19908;DHT22;10116;53.112;7.356;2023-10-08T09:31:57;24.90;99.90
19908;DHT22;10116;53.112;7.356;2023-10-08T09:34:28;24.80;99.90
19908;DHT22;10116;53.112;7.356;2023-10-08T09:36:56;24.80;99.90
19908;DHT22;10116;53.112;7.356;2023-10-08T09:39:22;24.80;99.90
19908;DHT22;10116;53.112;7.356;2023-10-08T09:41:55;24.80;99.90
19908;DHT22;10116;53.112;7.356;2023-10-08T09:44:22;24.80;99.90
19908;DHT22;10116;53.112;7.356;2023-10-08T09:46:57;24.80;99.90
19908;DHT22;10116;53.112;7.356;2023-10-08T09:49:36;24.80;99.90
19908;DHT22;10116;53.112;7.356;2023-10-08T09:52:04;24.80;99.90
19908;DHT22;10116;53.112;7.356;2023-10-08T09:54:44;24.70;99.90
19908;DHT22;10116;53.112;7.356;2023-10-08T09:57:13;24.70;99.90
19908;DHT22;10116;53.112;7.356;2023-10-08T09:59:40;24.70;99.90
19908;DHT22;10116;53.112;7.356;2023-10-08T10:02:07;24.70;99.90
19908;DHT22;10116;53.112;7.356;2023-10-08T10:04:35;24.70;99.90
19908;DHT22;10116;53.112;7.356;2023-10-08T10:07:10;24.70;99.90
19908;DHT22;10116;53.112;7.356;2023-10-08T10:09:38;24.70;99.90
19908;DHT22;10116;53.112;7.356;2023-10-08T10:12:05;24.80;99.90
19908;DHT22;10116;53.112;7.356;2023-10-08T10:14:47;24.80;99.90
19908;DHT22;10116;53.112;7.356;2023-10-08T10:17:21;24.90;99.90
19908;DHT22;10116;53.112;7.356;2023-10-08T10:20:00;24.90;99.90
19908;DHT22;10116;53.112;7.356;2023-10-08T10:22:28;25.00;99.90
19908;DHT22;10116;53.112;7.356;2023-10-08T10:24:54;25.00;99.90
19908;DHT22;10116;53.112;7.356;2023-10-08T10:27:20;25.00;99.90
19908;DHT22;10116;53.112;7.356;2023-10-08T10:29:47;25.00;99.90
19908;DHT22;10116;53.112;7.356;2023-10-08T10:32:14;25.00;99.90
19908;DHT22;10116;53.112;7.356;2023-10-08T10:34:41;25.00;99.90
19908;DHT22;10116;53.112;7.356;2023-10-08T10:37:07;25.00;99.90
19908;DHT22;10116;53.112;7.356;2023-10-08T10:39:56;25.00;99.90
19908;DHT22;10116;53.112;7.356;2023-10-08T10:42:25;25.00;99.90
19908;DHT22;10116;53.112;7.356;2023-10-08T10:44:52;25.00;99.90
19908;DHT22;10116;53.112;7.356;2023-10-08T10:47:19;25.00;99.90
19908;DHT22;10116;53.112;7.356;2023-10-08T10:49:51;25.00;99.90
19908;DHT22;10116;53.112;7.356;2023-10-08T10:52:32;25.00;99.90
19908;DHT22;10116;53.112;7.356;2023-10-08T10:55:04;25.00;99.90
19908;DHT22;10116;53.112;7.356;2023-10-08T10:57:50;25.00;99.90
19908;DHT22;10116;53.112;7.356;2023-10-08T11:00:25;25.00;99.90
19908;DHT22;10116;53.112;7.356;2023-10-08T11:03:01;25.00;99.90
19908;DHT22;10116;53.112;7.356;2023-10-08T11:05:37;25.00;99.90
19908;DHT22;10116;53.112;7.356;2023-10-08T11:08:05;25.00;99.90
19908;DHT22;10116;53.112;7.356;2023-10-08T11:10:33;25.00;99.90
19908;DHT22;10116;53.112;7.356;2023-10-08T11:13:00;25.00;99.90
19908;DHT22;10116;53.112;7.356;2023-10-08T11:15:30;25.00;99.90
19908;DHT22;10116;53.112;7.356;2023-10-08T11:18:13;25.00;99.90
19908;DHT22;10116;53.112;7.356;2023-10-08T11:20:42;25.00;99.90
19908;DHT22;10116;53.112;7.356;2023-10-08T11:23:35;25.00;99.90
19908;DHT22;10116;53.112;7.356;2023-10-08T11:26:03;25.00;99.90
19908;DHT22;10116;53.112;7.356;2023-10-08T11:28:32;24.90;99.90
19908;DHT22;10116;53.112;7.356;2023-10-08T11:31:03;24.70;99.90
19908;DHT22;10116;53.112;7.356;2023-10-08T11:33:42;24.60;99.90
19908;DHT22;10116;53.112;7.356;2023-10-08T11:36:09;24.60;99.90
19908;DHT22;10116;53.112;7.356;2023-10-08T11:38:47;24.60;99.90
19908;DHT22;10116;53.112;7.356;2023-10-08T11:41:19;24.60;99.90
19908;DHT22;10116;53.112;7.356;2023-10-08T11:46:14;24.80;99.90
19908;DHT22;10116;53.112;7.356;2023-10-08T11:48:43;24.80;99.90
19908;DHT22;10116;53.112;7.356;2023-10-08T11:51:12;24.90;99.90
19908;DHT22;10116;53.112;7.356;2023-10-08T11:53:42;24.90;99.90
19908;DHT22;10116;53.112;7.356;2023-10-08T11:56:12;25.00;99.90
19908;DHT22;10116;53.112;7.356;2023-10-08T11:58:41;25.00;99.90
19908;DHT22;10116;53.112;7.356;2023-10-08T12:01:11;25.00;99.90
19908;DHT22;10116;53.112;7.356;2023-10-08T12:03:42;25.10;99.90
19908;DHT22;10116;53.112;7.356;2023-10-08T12:06:10;25.10;99.90
19908;DHT22;10116;53.112;7.356;2023-10-08T12:08:43;25.10;99.90
19908;DHT22;10116;53.112;7.356;2023-10-08T12:11:11;25.10;99.90
19908;DHT22;10116;53.112;7.356;2023-10-08T12:13:43;25.10;99.90
19908;DHT22;10116;53.112;7.356;2023-10-08T12:16:16;25.20;99.90
19908;DHT22;10116;53.112;7.356;2023-10-08T12:18:48;25.20;99.90
19908;DHT22;10116;53.112;7.356;2023-10-08T12:21:18;25.20;99.90
19908;DHT22;10116;53.112;7.356;2023-10-08T12:23:44;25.20;99.90
19908;DHT22;10116;53.112;7.356;2023-10-08T12:26:12;25.20;99.90
19908;DHT22;10116;53.112;7.356;2023-10-08T12:28:45;25.20;99.90
19908;DHT22;10116;53.112;7.356;2023-10-08T12:31:12;25.20;99.90
19908;DHT22;10116;53.112;7.356;2023-10-08T12:33:37;25.20;99.90
19908;DHT22;10116;53.112;7.356;2023-10-08T12:36:03;25.20;99.90
19908;DHT22;10116;53.112;7.356;2023-10-08T12:38:40;25.20;99.90
19908;DHT22;10116;53.112;7.356;2023-10-08T12:41:12;25.20;99.90
19908;DHT22;10116;53.112;7.356;2023-10-08T12:43:39;25.20;99.90
19908;DHT22;10116;53.112;7.356;2023-10-08T12:46:08;25.20;99.90
19908;DHT22;10116;53.112;7.356;2023-10-08T12:48:39;25.20;99.90
19908;DHT22;10116;53.112;7.356;2023-10-08T12:51:05;25.20;99.90
19908;DHT22;10116;53.112;7.356;2023-10-08T12:53:32;25.20;99.90
19908;DHT22;10116;53.112;7.356;2023-10-08T12:56:06;25.20;99.90
19908;DHT22;10116;53.112;7.356;2023-10-08T12:58:33;25.10;99.90
19908;DHT22;10116;53.112;7.356;2023-10-08T13:01:13;25.10;99.90
19908;DHT22;10116;53.112;7.356;2023-10-08T13:03:40;25.10;99.90
19908;DHT22;10116;53.112;7.356;2023-10-08T13:06:13;25.10;99.90
19908;DHT22;10116;53.112;7.356;2023-10-08T13:08:49;25.10;99.90
19908;DHT22;10116;53.112;7.356;2023-10-08T13:11:17;25.10;99.90
19908;DHT22;10116;53.112;7.356;2023-10-08T13:13:54;25.20;99.90
19908;DHT22;10116;53.112;7.356;2023-10-08T13:16:27;25.20;99.90
19908;DHT22;10116;53.112;7.356;2023-10-08T13:18:57;25.20;99.90
19908;DHT22;10116;53.112;7.356;2023-10-08T13:21:24;25.30;99.90
19908;DHT22;10116;53.112;7.356;2023-10-08T13:23:51;25.20;99.90
19908;DHT22;10116;53.112;7.356;2023-10-08T13:26:18;25.20;99.90
19908;DHT22;10116;53.112;7.356;2023-10-08T13:28:44;25.20;99.90
19908;DHT22;10116;53.112;7.356;2023-10-08T13:31:10;25.20;99.90
19908;DHT22;10116;53.112;7.356;2023-10-08T13:33:39;25.30;99.90
19908;DHT22;10116;53.112;7.356;2023-10-08T13:36:07;25.20;99.90
19908;DHT22;10116;53.112;7.356;2023-10-08T13:38:35;25.20;99.90
19908;DHT22;10116;53.112;7.356;2023-10-08T13:41:05;25.20;99.90
19908;DHT22;10116;53.112;7.356;2023-10-08T13:43:47;25.30;99.90
19908;DHT22;10116;53.112;7.356;2023-10-08T13:46:17;25.30;99.90
19908;DHT22;10116;53.112;7.356;2023-10-08T13:48:45;25.30;99.90
19908;DHT22;10116;53.112;7.356;2023-10-08T13:51:15;25.20;99.90
19908;DHT22;10116;53.112;7.356;2023-10-08T13:53:53;25.30;99.90
19908;DHT22;10116;53.112;7.356;2023-10-08T13:56:22;25.30;99.90
19908;DHT22;10116;53.112;7.356;2023-10-08T13:58:55;25.30;99.90
19908;DHT22;10116;53.112;7.356;2023-10-08T14:01:37;25.30;99.90
19908;DHT22;10116;53.112;7.356;2023-10-08T14:04:04;25.30;99.90
19908;DHT22;10116;53.112;7.356;2023-10-08T14:06:32;25.30;99.90
19908;DHT22;10116;53.112;7.356;2023-10-08T14:09:00;25.30;99.90
19908;DHT22;10116;53.112;7.356;2023-10-08T14:11:26;25.30;99.90
19908;DHT22;10116;53.112;7.356;2023-10-08T14:13:59;25.30;99.90
19908;DHT22;10116;53.112;7.356;2023-10-08T14:16:28;25.30;99.90
19908;DHT22;10116;53.112;7.356;2023-10-08T14:18:57;25.30;99.90
19908;DHT22;10116;53.112;7.356;2023-10-08T14:21:25;25.30;99.90
19908;DHT22;10116;53.112;7.356;2023-10-08T14:23:58;25.30;99.90
19908;DHT22;10116;53.112;7.356;2023-10-08T14:26:30;25.30;99.90
19908;DHT22;10116;53.112;7.356;2023-10-08T14:29:03;25.30;99.90
19908;DHT22;10116;53.112;7.356;2023-10-08T14:31:36;25.30;99.90
19908;DHT22;10116;53.112;7.356;2023-10-08T14:34:07;25.30;99.90
19908;DHT22;10116;53.112;7.356;2023-10-08T14:36:56;25.30;99.90
19908;DHT22;10116;53.112;7.356;2023-10-08T14:39:40;25.20;99.90
19908;DHT22;10116;53.112;7.356;2023-10-08T14:42:25;25.30;99.90
19908;DHT22;10116;53.112;7.356;2023-10-08T14:45:09;25.30;99.90
19908;DHT22;10116;53.112;7.356;2023-10-08T14:47:39;25.30;99.90
19908;DHT22;10116;53.112;7.356;2023-10-08T14:50:05;25.40;99.90
19908;DHT22;10116;53.112;7.356;2023-10-08T14:52:34;25.40;99.90
19908;DHT22;10116;53.112;7.356;2023-10-08T14:55:01;25.40;99.90
19908;DHT22;10116;53.112;7.356;2023-10-08T14:57:27;25.40;99.90
19908;DHT22;10116;53.112;7.356;2023-10-08T14:59:52;25.40;99.90
19908;DHT22;10116;53.112;7.356;2023-10-08T15:02:18;25.40;99.90
19908;DHT22;10116;53.112;7.356;2023-10-08T15:04:44;25.40;99.90
19908;DHT22;10116;53.112;7.356;2023-10-08T15:07:10;25.40;99.90
19908;DHT22;10116;53.112;7.356;2023-10-08T15:09:43;25.40;99.90
19908;DHT22;10116;53.112;7.356;2023-10-08T15:12:10;25.40;99.90
19908;DHT22;10116;53.112;7.356;2023-10-08T15:14:36;25.40;99.90
19908;DHT22;10116;53.112;7.356;2023-10-08T15:17:04;25.40;99.90
19908;DHT22;10116;53.112;7.356;2023-10-08T15:19:30;25.40;99.90
19908;DHT22;10116;53.112;7.356;2023-10-08T15:21:57;25.40;99.90
19908;DHT22;10116;53.112;7.356;2023-10-08T15:24:23;25.40;99.90
19908;DHT22;10116;53.112;7.356;2023-10-08T15:26:53;25.40;99.90
19908;DHT22;10116;53.112;7.356;2023-10-08T15:29:20;25.40;99.90
19908;DHT22;10116;53.112;7.356;2023-10-08T15:31:49;25.40;99.90
19908;DHT22;10116;53.112;7.356;2023-10-08T15:34:15;25.40;99.90
19908;DHT22;10116;53.112;7.356;2023-10-08T15:36:41;25.40;99.90
19908;DHT22;10116;53.112;7.356;2023-10-08T15:39:07;25.40;99.90
19908;DHT22;10116;53.112;7.356;2023-10-08T15:41:38;25.30;99.90
19908;DHT22;10116;53.112;7.356;2023-10-08T15:44:04;25.30;99.90
19908;DHT22;10116;53.112;7.356;2023-10-08T15:46:31;25.30;99.90
19908;DHT22;10116;53.112;7.356;2023-10-08T15:49:00;25.30;99.90
19908;DHT22;10116;53.112;7.356;2023-10-08T15:51:29;25.30;99.90
19908;DHT22;10116;53.112;7.356;2023-10-08T15:53:55;25.30;99.90
19908;DHT22;10116;53.112;7.356;2023-10-08T15:56:20;25.30;99.90
19908;DHT22;10116;53.112;7.356;2023-10-08T15:58:46;25.30;99.90